sensor_id;sensor_type;location;lat;lon;timestamp;P1;durP1;ratioP1;P2;durP2;ratioP2
19828;SDS011;10075;50.924;4.396;2023-07-08T00:00:18;8.35;;;5.68;;
19828;SDS011;10075;50.924;4.396;2023-07-08T00:02:48;10.07;;;6.70;;
19828;SDS011;10075;50.924;4.396;2023-07-08T00:05:16;11.20;;;5.72;;
19828;SDS011;10075;50.924;4.396;2023-07-08T00:07:44;8.90;;;5.32;;
19828;SDS011;10075;50.924;4.396;2023-07-08T00:10:12;11.60;;;4.85;;
19828;SDS011;10075;50.924;4.396;2023-07-08T00:12:41;8.40;;;5.03;;
19828;SDS011;10075;50.924;4.396;2023-07-08T00:15:09;8.07;;;5.30;;
19828;SDS011;10075;50.924;4.396;2023-07-08T00:17:36;6.95;;;4.88;;
19828;SDS011;10075;50.924;4.396;2023-07-08T00:20:18;6.80;;;5.28;;
19828;SDS011;10075;50.924;4.396;2023-07-08T00:22:48;11.77;;;6.45;;
19828;SDS011;10075;50.924;4.396;2023-07-08T00:25:16;10.13;;;5.22;;
19828;SDS011;10075;50.924;4.396;2023-07-08T00:27:44;10.60;;;5.68;;
19828;SDS011;10075;50.924;4.396;2023-07-08T00:30:15;7.45;;;5.47;;
19828;SDS011;10075;50.924;4.396;2023-07-08T00:32:46;10.65;;;5.57;;
19828;SDS011;10075;50.924;4.396;2023-07-08T00:35:21;10.35;;;5.22;;
19828;SDS011;10075;50.924;4.396;2023-07-08T00:37:49;10.00;;;6.18;;
19828;SDS011;10075;50.924;4.396;2023-07-08T00:40:19;11.48;;;5.78;;
19828;SDS011;10075;50.924;4.396;2023-07-08T00:42:47;13.07;;;5.43;;
19828;SDS011;10075;50.924;4.396;2023-07-08T00:45:32;10.45;;;5.25;;
19828;SDS011;10075;50.924;4.396;2023-07-08T00:48:16;8.40;;;4.75;;
19828;SDS011;10075;50.924;4.396;2023-07-08T00:50:50;9.05;;;5.22;;
19828;SDS011;10075;50.924;4.396;2023-07-08T00:53:24;7.72;;;5.40;;
19828;SDS011;10075;50.924;4.396;2023-07-08T00:55:54;7.47;;;4.95;;
19828;SDS011;10075;50.924;4.396;2023-07-08T00:58:25;7.38;;;5.40;;
19828;SDS011;10075;50.924;4.396;2023-07-08T01:00:59;10.35;;;5.30;;
19828;SDS011;10075;50.924;4.396;2023-07-08T01:03:30;7.75;;;5.30;;
19828;SDS011;10075;50.924;4.396;2023-07-08T01:05:59;10.27;;;5.55;;
19828;SDS011;10075;50.924;4.396;2023-07-08T01:08:27;9.77;;;5.10;;
19828;SDS011;10075;50.924;4.396;2023-07-08T01:10:59;9.82;;;5.68;;
19828;SDS011;10075;50.924;4.396;2023-07-08T01:13:29;11.50;;;5.53;;
19828;SDS011;10075;50.924;4.396;2023-07-08T01:15:59;8.07;;;5.88;;
19828;SDS011;10075;50.924;4.396;2023-07-08T01:18:26;9.20;;;5.25;;
19828;SDS011;10075;50.924;4.396;2023-07-08T01:20:53;11.23;;;5.82;;
19828;SDS011;10075;50.924;4.396;2023-07-08T01:23:22;8.70;;;5.88;;
19828;SDS011;10075;50.924;4.396;2023-07-08T01:25:50;11.18;;;6.03;;
19828;SDS011;10075;50.924;4.396;2023-07-08T01:28:17;8.00;;;6.13;;
19828;SDS011;10075;50.924;4.396;2023-07-08T01:30:45;8.88;;;5.75;;
19828;SDS011;10075;50.924;4.396;2023-07-08T01:33:16;8.13;;;5.10;;
19828;SDS011;10075;50.924;4.396;2023-07-08T01:35:45;9.32;;;5.68;;
19828;SDS011;10075;50.924;4.396;2023-07-08T01:38:14;9.82;;;6.38;;
19828;SDS011;10075;50.924;4.396;2023-07-08T01:40:49;6.63;;;5.13;;
19828;SDS011;10075;50.924;4.396;2023-07-08T01:43:17;7.90;;;5.25;;
19828;SDS011;10075;50.924;4.396;2023-07-08T01:45:44;9.32;;;5.50;;
19828;SDS011;10075;50.924;4.396;2023-07-08T01:48:14;8.30;;;6.05;;
19828;SDS011;10075;50.924;4.396;2023-07-08T01:50:43;9.15;;;5.00;;
19828;SDS011;10075;50.924;4.396;2023-07-08T01:53:14;8.52;;;5.07;;
19828;SDS011;10075;50.924;4.396;2023-07-08T01:55:43;6.70;;;4.90;;
19828;SDS011;10075;50.924;4.396;2023-07-08T01:58:11;8.52;;;5.55;;
19828;SDS011;10075;50.924;4.396;2023-07-08T02:00:38;6.95;;;5.43;;
19828;SDS011;10075;50.924;4.396;2023-07-08T02:03:05;7.97;;;5.88;;
19828;SDS011;10075;50.924;4.396;2023-07-08T02:05:32;7.15;;;5.45;;
19828;SDS011;10075;50.924;4.396;2023-07-08T02:07:59;9.25;;;5.50;;
19828;SDS011;10075;50.924;4.396;2023-07-08T02:10:26;12.98;;;6.40;;
19828;SDS011;10075;50.924;4.396;2023-07-08T02:12:53;7.47;;;5.55;;
19828;SDS011;10075;50.924;4.396;2023-07-08T02:15:21;11.68;;;5.55;;
19828;SDS011;10075;50.924;4.396;2023-07-08T02:17:48;7.53;;;5.63;;
19828;SDS011;10075;50.924;4.396;2023-07-08T02:20:15;8.98;;;6.10;;
19828;SDS011;10075;50.924;4.396;2023-07-08T02:22:42;10.10;;;6.00;;
19828;SDS011;10075;50.924;4.396;2023-07-08T02:25:09;11.43;;;6.20;;
19828;SDS011;10075;50.924;4.396;2023-07-08T02:27:36;10.73;;;5.80;;
19828;SDS011;10075;50.924;4.396;2023-07-08T02:30:04;9.32;;;5.57;;
19828;SDS011;10075;50.924;4.396;2023-07-08T02:32:33;10.73;;;6.05;;
19828;SDS011;10075;50.924;4.396;2023-07-08T02:35:00;11.60;;;6.32;;
19828;SDS011;10075;50.924;4.396;2023-07-08T02:37:28;8.10;;;5.75;;
19828;SDS011;10075;50.924;4.396;2023-07-08T02:39:55;8.18;;;5.97;;
19828;SDS011;10075;50.924;4.396;2023-07-08T02:42:22;7.85;;;5.38;;
19828;SDS011;10075;50.924;4.396;2023-07-08T02:44:49;8.05;;;6.18;;
19828;SDS011;10075;50.924;4.396;2023-07-08T02:47:16;8.27;;;5.68;;
19828;SDS011;10075;50.924;4.396;2023-07-08T02:49:45;10.43;;;5.97;;
19828;SDS011;10075;50.924;4.396;2023-07-08T02:52:12;7.82;;;6.13;;
19828;SDS011;10075;50.924;4.396;2023-07-08T02:54:39;7.63;;;5.95;;
19828;SDS011;10075;50.924;4.396;2023-07-08T02:57:06;8.43;;;5.93;;
19828;SDS011;10075;50.924;4.396;2023-07-08T02:59:32;10.43;;;6.65;;
19828;SDS011;10075;50.924;4.396;2023-07-08T03:01:59;9.25;;;6.13;;
19828;SDS011;10075;50.924;4.396;2023-07-08T03:04:26;7.75;;;5.90;;
19828;SDS011;10075;50.924;4.396;2023-07-08T03:06:56;10.00;;;6.60;;
19828;SDS011;10075;50.924;4.396;2023-07-08T03:09:24;7.80;;;6.13;;
19828;SDS011;10075;50.924;4.396;2023-07-08T03:11:51;11.75;;;6.22;;
19828;SDS011;10075;50.924;4.396;2023-07-08T03:14:18;6.95;;;5.63;;
19828;SDS011;10075;50.924;4.396;2023-07-08T03:16:45;10.77;;;6.57;;
19828;SDS011;10075;50.924;4.396;2023-07-08T03:19:12;11.88;;;6.72;;
19828;SDS011;10075;50.924;4.396;2023-07-08T03:21:40;8.68;;;5.82;;
19828;SDS011;10075;50.924;4.396;2023-07-08T03:24:10;11.52;;;5.65;;
19828;SDS011;10075;50.924;4.396;2023-07-08T03:26:37;9.30;;;6.18;;
19828;SDS011;10075;50.924;4.396;2023-07-08T03:29:04;8.35;;;6.13;;
19828;SDS011;10075;50.924;4.396;2023-07-08T03:31:32;9.93;;;6.13;;
19828;SDS011;10075;50.924;4.396;2023-07-08T03:33:59;9.45;;;5.82;;
19828;SDS011;10075;50.924;4.396;2023-07-08T03:36:26;8.60;;;5.82;;
19828;SDS011;10075;50.924;4.396;2023-07-08T03:38:55;9.50;;;5.80;;
19828;SDS011;10075;50.924;4.396;2023-07-08T03:41:24;8.85;;;5.38;;
19828;SDS011;10075;50.924;4.396;2023-07-08T03:43:51;7.13;;;5.28;;
19828;SDS011;10075;50.924;4.396;2023-07-08T03:46:18;9.45;;;6.05;;
19828;SDS011;10075;50.924;4.396;2023-07-08T03:48:48;8.90;;;5.97;;
19828;SDS011;10075;50.924;4.396;2023-07-08T03:51:17;9.00;;;5.90;;
19828;SDS011;10075;50.924;4.396;2023-07-08T03:53:48;8.65;;;6.32;;
19828;SDS011;10075;50.924;4.396;2023-07-08T03:56:15;8.70;;;5.72;;
19828;SDS011;10075;50.924;4.396;2023-07-08T03:58:43;9.18;;;5.55;;
19828;SDS011;10075;50.924;4.396;2023-07-08T04:01:12;9.07;;;6.10;;
19828;SDS011;10075;50.924;4.396;2023-07-08T04:03:41;11.15;;;6.00;;
19828;SDS011;10075;50.924;4.396;2023-07-08T04:06:09;8.70;;;5.90;;
19828;SDS011;10075;50.924;4.396;2023-07-08T04:08:36;11.13;;;6.65;;
19828;SDS011;10075;50.924;4.396;2023-07-08T04:11:03;11.68;;;5.82;;
19828;SDS011;10075;50.924;4.396;2023-07-08T04:13:30;10.10;;;6.80;;
19828;SDS011;10075;50.924;4.396;2023-07-08T04:16:00;8.05;;;6.25;;
19828;SDS011;10075;50.924;4.396;2023-07-08T04:18:29;9.43;;;6.30;;
19828;SDS011;10075;50.924;4.396;2023-07-08T04:20:56;8.88;;;6.25;;
19828;SDS011;10075;50.924;4.396;2023-07-08T04:23:24;10.85;;;6.10;;
19828;SDS011;10075;50.924;4.396;2023-07-08T04:25:53;10.00;;;6.80;;
19828;SDS011;10075;50.924;4.396;2023-07-08T04:28:22;13.40;;;7.28;;
19828;SDS011;10075;50.924;4.396;2023-07-08T04:30:49;8.52;;;6.45;;
19828;SDS011;10075;50.924;4.396;2023-07-08T04:33:17;10.10;;;6.70;;
19828;SDS011;10075;50.924;4.396;2023-07-08T04:35:44;10.20;;;7.03;;
19828;SDS011;10075;50.924;4.396;2023-07-08T04:38:14;10.88;;;6.53;;
19828;SDS011;10075;50.924;4.396;2023-07-08T04:40:43;11.48;;;6.85;;
19828;SDS011;10075;50.924;4.396;2023-07-08T04:43:10;10.30;;;7.40;;
19828;SDS011;10075;50.924;4.396;2023-07-08T04:45:37;10.90;;;6.68;;
19828;SDS011;10075;50.924;4.396;2023-07-08T04:48:05;11.38;;;7.00;;
19828;SDS011;10075;50.924;4.396;2023-07-08T04:50:39;15.27;;;6.75;;
19828;SDS011;10075;50.924;4.396;2023-07-08T04:53:06;8.98;;;6.47;;
19828;SDS011;10075;50.924;4.396;2023-07-08T04:55:33;11.20;;;6.93;;
19828;SDS011;10075;50.924;4.396;2023-07-08T04:58:00;10.23;;;5.65;;
19828;SDS011;10075;50.924;4.396;2023-07-08T05:00:28;8.50;;;5.47;;
19828;SDS011;10075;50.924;4.396;2023-07-08T05:02:55;11.82;;;6.50;;
19828;SDS011;10075;50.924;4.396;2023-07-08T05:05:22;7.22;;;6.28;;
19828;SDS011;10075;50.924;4.396;2023-07-08T05:07:51;9.93;;;6.32;;
19828;SDS011;10075;50.924;4.396;2023-07-08T05:10:18;7.60;;;6.40;;
19828;SDS011;10075;50.924;4.396;2023-07-08T05:12:46;12.63;;;6.60;;
19828;SDS011;10075;50.924;4.396;2023-07-08T05:15:13;8.85;;;6.47;;
19828;SDS011;10075;50.924;4.396;2023-07-08T05:17:41;11.35;;;7.13;;
19828;SDS011;10075;50.924;4.396;2023-07-08T05:20:10;8.82;;;6.40;;
19828;SDS011;10075;50.924;4.396;2023-07-08T05:22:38;12.48;;;6.95;;
19828;SDS011;10075;50.924;4.396;2023-07-08T05:25:12;13.18;;;7.32;;
19828;SDS011;10075;50.924;4.396;2023-07-08T05:27:40;9.38;;;7.05;;
19828;SDS011;10075;50.924;4.396;2023-07-08T05:30:08;13.43;;;6.80;;
19828;SDS011;10075;50.924;4.396;2023-07-08T05:32:40;12.68;;;6.97;;
19828;SDS011;10075;50.924;4.396;2023-07-08T05:35:07;12.85;;;7.13;;
19828;SDS011;10075;50.924;4.396;2023-07-08T05:37:34;14.63;;;7.82;;
19828;SDS011;10075;50.924;4.396;2023-07-08T05:40:01;9.43;;;7.00;;
19828;SDS011;10075;50.924;4.396;2023-07-08T05:42:31;11.77;;;7.30;;
19828;SDS011;10075;50.924;4.396;2023-07-08T05:44:58;11.95;;;7.18;;
19828;SDS011;10075;50.924;4.396;2023-07-08T05:47:25;10.60;;;7.28;;
19828;SDS011;10075;50.924;4.396;2023-07-08T05:49:52;11.82;;;7.35;;
19828;SDS011;10075;50.924;4.396;2023-07-08T05:52:19;13.10;;;7.32;;
19828;SDS011;10075;50.924;4.396;2023-07-08T05:54:46;11.80;;;7.10;;
19828;SDS011;10075;50.924;4.396;2023-07-08T05:57:13;11.05;;;7.03;;
19828;SDS011;10075;50.924;4.396;2023-07-08T05:59:41;14.02;;;7.70;;
19828;SDS011;10075;50.924;4.396;2023-07-08T06:02:10;9.82;;;6.90;;
19828;SDS011;10075;50.924;4.396;2023-07-08T06:04:38;11.18;;;7.68;;
19828;SDS011;10075;50.924;4.396;2023-07-08T06:07:05;14.50;;;7.45;;
19828;SDS011;10075;50.924;4.396;2023-07-08T06:09:32;10.27;;;7.30;;
19828;SDS011;10075;50.924;4.396;2023-07-08T06:12:00;12.70;;;7.65;;
19828;SDS011;10075;50.924;4.396;2023-07-08T06:14:27;11.25;;;7.40;;
19828;SDS011;10075;50.924;4.396;2023-07-08T06:16:57;12.77;;;8.30;;
19828;SDS011;10075;50.924;4.396;2023-07-08T06:19:24;11.07;;;7.25;;
19828;SDS011;10075;50.924;4.396;2023-07-08T06:21:51;16.25;;;7.40;;
19828;SDS011;10075;50.924;4.396;2023-07-08T06:24:18;9.43;;;7.05;;
19828;SDS011;10075;50.924;4.396;2023-07-08T06:26:45;8.85;;;6.78;;
19828;SDS011;10075;50.924;4.396;2023-07-08T06:29:12;9.25;;;7.53;;
19828;SDS011;10075;50.924;4.396;2023-07-08T06:31:41;10.63;;;7.32;;
19828;SDS011;10075;50.924;4.396;2023-07-08T06:34:09;9.90;;;6.82;;
19828;SDS011;10075;50.924;4.396;2023-07-08T06:36:36;10.48;;;6.72;;
19828;SDS011;10075;50.924;4.396;2023-07-08T06:39:03;12.48;;;6.80;;
19828;SDS011;10075;50.924;4.396;2023-07-08T06:41:32;17.80;;;7.57;;
19828;SDS011;10075;50.924;4.396;2023-07-08T06:43:59;11.07;;;6.90;;
19828;SDS011;10075;50.924;4.396;2023-07-08T06:46:26;10.80;;;6.40;;
19828;SDS011;10075;50.924;4.396;2023-07-08T06:48:53;12.25;;;6.55;;
19828;SDS011;10075;50.924;4.396;2023-07-08T06:51:21;16.65;;;7.07;;
19828;SDS011;10075;50.924;4.396;2023-07-08T06:53:48;13.80;;;6.28;;
19828;SDS011;10075;50.924;4.396;2023-07-08T06:56:15;18.75;;;6.80;;
19828;SDS011;10075;50.924;4.396;2023-07-08T06:58:42;18.35;;;6.78;;
19828;SDS011;10075;50.924;4.396;2023-07-08T07:01:09;22.40;;;7.28;;
19828;SDS011;10075;50.924;4.396;2023-07-08T07:03:36;18.27;;;6.68;;
19828;SDS011;10075;50.924;4.396;2023-07-08T07:06:03;16.02;;;6.78;;
19828;SDS011;10075;50.924;4.396;2023-07-08T07:08:32;12.48;;;5.68;;
19828;SDS011;10075;50.924;4.396;2023-07-08T07:10:59;8.82;;;6.20;;
19828;SDS011;10075;50.924;4.396;2023-07-08T07:13:26;12.02;;;5.93;;
19828;SDS011;10075;50.924;4.396;2023-07-08T07:15:53;10.75;;;5.90;;
19828;SDS011;10075;50.924;4.396;2023-07-08T07:18:19;12.50;;;6.47;;
19828;SDS011;10075;50.924;4.396;2023-07-08T07:20:48;8.82;;;6.03;;
19828;SDS011;10075;50.924;4.396;2023-07-08T07:23:16;10.70;;;6.43;;
19828;SDS011;10075;50.924;4.396;2023-07-08T07:25:44;13.43;;;6.80;;
19828;SDS011;10075;50.924;4.396;2023-07-08T07:28:13;10.80;;;6.35;;
19828;SDS011;10075;50.924;4.396;2023-07-08T07:30:41;13.65;;;6.63;;
19828;SDS011;10075;50.924;4.396;2023-07-08T07:33:08;13.60;;;7.00;;
19828;SDS011;10075;50.924;4.396;2023-07-08T07:35:35;13.30;;;7.03;;
19828;SDS011;10075;50.924;4.396;2023-07-08T07:38:07;9.10;;;6.35;;
19828;SDS011;10075;50.924;4.396;2023-07-08T07:40:34;12.93;;;6.57;;
19828;SDS011;10075;50.924;4.396;2023-07-08T07:43:02;11.40;;;6.25;;
19828;SDS011;10075;50.924;4.396;2023-07-08T07:45:29;9.48;;;6.28;;
19828;SDS011;10075;50.924;4.396;2023-07-08T07:47:56;10.10;;;6.28;;
19828;SDS011;10075;50.924;4.396;2023-07-08T07:50:23;8.40;;;5.72;;
19828;SDS011;10075;50.924;4.396;2023-07-08T07:52:50;11.70;;;6.68;;
19828;SDS011;10075;50.924;4.396;2023-07-08T07:55:17;10.68;;;6.70;;
19828;SDS011;10075;50.924;4.396;2023-07-08T07:57:44;8.85;;;5.65;;
19828;SDS011;10075;50.924;4.396;2023-07-08T08:00:13;9.85;;;5.75;;
19828;SDS011;10075;50.924;4.396;2023-07-08T08:02:41;9.35;;;5.80;;
19828;SDS011;10075;50.924;4.396;2023-07-08T08:05:08;11.23;;;6.72;;
19828;SDS011;10075;50.924;4.396;2023-07-08T08:07:35;9.35;;;6.32;;
19828;SDS011;10075;50.924;4.396;2023-07-08T08:10:02;11.50;;;6.25;;
19828;SDS011;10075;50.924;4.396;2023-07-08T08:12:29;13.85;;;6.80;;
19828;SDS011;10075;50.924;4.396;2023-07-08T08:14:56;11.57;;;5.72;;
19828;SDS011;10075;50.924;4.396;2023-07-08T08:17:25;9.20;;;6.03;;
19828;SDS011;10075;50.924;4.396;2023-07-08T08:19:51;11.38;;;6.55;;
19828;SDS011;10075;50.924;4.396;2023-07-08T08:22:18;10.30;;;6.38;;
19828;SDS011;10075;50.924;4.396;2023-07-08T08:24:46;9.73;;;6.65;;
19828;SDS011;10075;50.924;4.396;2023-07-08T08:27:13;12.57;;;6.60;;
19828;SDS011;10075;50.924;4.396;2023-07-08T08:29:40;10.50;;;6.50;;
19828;SDS011;10075;50.924;4.396;2023-07-08T08:32:07;10.80;;;5.85;;
19828;SDS011;10075;50.924;4.396;2023-07-08T08:34:35;9.45;;;6.97;;
19828;SDS011;10075;50.924;4.396;2023-07-08T08:37:02;13.13;;;6.95;;
19828;SDS011;10075;50.924;4.396;2023-07-08T08:39:30;8.50;;;6.60;;
19828;SDS011;10075;50.924;4.396;2023-07-08T08:41:57;12.45;;;6.68;;
19828;SDS011;10075;50.924;4.396;2023-07-08T08:44:25;11.48;;;7.55;;
19828;SDS011;10075;50.924;4.396;2023-07-08T08:46:57;11.38;;;7.13;;
19828;SDS011;10075;50.924;4.396;2023-07-08T08:49:32;11.43;;;6.90;;
19828;SDS011;10075;50.924;4.396;2023-07-08T08:52:05;9.10;;;6.95;;
19828;SDS011;10075;50.924;4.396;2023-07-08T08:54:33;10.00;;;6.90;;
19828;SDS011;10075;50.924;4.396;2023-07-08T08:57:02;12.77;;;6.60;;
19828;SDS011;10075;50.924;4.396;2023-07-08T08:59:52;12.95;;;7.10;;
19828;SDS011;10075;50.924;4.396;2023-07-08T09:02:27;12.02;;;7.28;;
19828;SDS011;10075;50.924;4.396;2023-07-08T09:05:01;11.50;;;7.03;;
19828;SDS011;10075;50.924;4.396;2023-07-08T09:07:30;12.32;;;7.35;;
19828;SDS011;10075;50.924;4.396;2023-07-08T09:10:02;9.07;;;7.03;;
19828;SDS011;10075;50.924;4.396;2023-07-08T09:12:34;10.57;;;7.35;;
19828;SDS011;10075;50.924;4.396;2023-07-08T09:15:03;12.32;;;7.70;;
19828;SDS011;10075;50.924;4.396;2023-07-08T09:17:38;11.13;;;7.07;;
19828;SDS011;10075;50.924;4.396;2023-07-08T09:20:11;9.65;;;7.38;;
19828;SDS011;10075;50.924;4.396;2023-07-08T09:22:49;10.23;;;6.88;;
19828;SDS011;10075;50.924;4.396;2023-07-08T09:25:23;10.88;;;7.43;;
19828;SDS011;10075;50.924;4.396;2023-07-08T09:27:53;10.25;;;6.63;;
19828;SDS011;10075;50.924;4.396;2023-07-08T09:30:20;10.20;;;7.10;;
19828;SDS011;10075;50.924;4.396;2023-07-08T09:32:49;9.32;;;7.10;;
19828;SDS011;10075;50.924;4.396;2023-07-08T09:35:20;11.13;;;7.10;;
19828;SDS011;10075;50.924;4.396;2023-07-08T09:37:50;9.98;;;7.03;;
19828;SDS011;10075;50.924;4.396;2023-07-08T09:40:17;14.80;;;7.80;;
19828;SDS011;10075;50.924;4.396;2023-07-08T09:42:49;10.15;;;7.03;;
19828;SDS011;10075;50.924;4.396;2023-07-08T09:45:18;13.95;;;7.65;;
19828;SDS011;10075;50.924;4.396;2023-07-08T09:47:47;16.10;;;8.20;;
19828;SDS011;10075;50.924;4.396;2023-07-08T09:50:20;15.57;;;8.10;;
19828;SDS011;10075;50.924;4.396;2023-07-08T09:52:49;10.90;;;7.25;;
19828;SDS011;10075;50.924;4.396;2023-07-08T09:55:19;11.63;;;7.32;;
19828;SDS011;10075;50.924;4.396;2023-07-08T09:57:47;16.15;;;7.38;;
19828;SDS011;10075;50.924;4.396;2023-07-08T10:00:17;12.57;;;7.70;;
19828;SDS011;10075;50.924;4.396;2023-07-08T10:02:46;11.82;;;7.72;;
19828;SDS011;10075;50.924;4.396;2023-07-08T10:05:21;11.18;;;6.43;;
19828;SDS011;10075;50.924;4.396;2023-07-08T10:07:51;10.63;;;7.45;;
19828;SDS011;10075;50.924;4.396;2023-07-08T10:10:22;13.13;;;7.15;;
19828;SDS011;10075;50.924;4.396;2023-07-08T10:12:55;8.68;;;6.72;;
19828;SDS011;10075;50.924;4.396;2023-07-08T10:15:27;8.45;;;6.70;;
19828;SDS011;10075;50.924;4.396;2023-07-08T10:17:58;8.93;;;6.68;;
19828;SDS011;10075;50.924;4.396;2023-07-08T10:20:28;10.73;;;6.97;;
19828;SDS011;10075;50.924;4.396;2023-07-08T10:23:07;8.35;;;6.07;;
19828;SDS011;10075;50.924;4.396;2023-07-08T10:25:49;10.57;;;7.00;;
19828;SDS011;10075;50.924;4.396;2023-07-08T10:28:26;10.13;;;6.55;;
19828;SDS011;10075;50.924;4.396;2023-07-08T10:31:03;13.13;;;6.55;;
19828;SDS011;10075;50.924;4.396;2023-07-08T10:33:45;12.13;;;7.25;;
19828;SDS011;10075;50.924;4.396;2023-07-08T10:36:23;10.88;;;6.50;;
19828;SDS011;10075;50.924;4.396;2023-07-08T10:39:02;11.80;;;6.40;;
19828;SDS011;10075;50.924;4.396;2023-07-08T10:41:48;9.95;;;6.32;;
19828;SDS011;10075;50.924;4.396;2023-07-08T10:44:24;13.52;;;6.65;;
19828;SDS011;10075;50.924;4.396;2023-07-08T10:46:58;16.70;;;7.15;;
19828;SDS011;10075;50.924;4.396;2023-07-08T10:49:44;10.20;;;7.05;;
19828;SDS011;10075;50.924;4.396;2023-07-08T10:52:26;11.95;;;6.82;;
19828;SDS011;10075;50.924;4.396;2023-07-08T10:55:08;10.25;;;6.63;;
19828;SDS011;10075;50.924;4.396;2023-07-08T10:57:53;8.90;;;6.80;;
19828;SDS011;10075;50.924;4.396;2023-07-08T11:00:30;9.40;;;6.38;;
19828;SDS011;10075;50.924;4.396;2023-07-08T11:03:14;10.30;;;6.60;;
19828;SDS011;10075;50.924;4.396;2023-07-08T11:06:03;9.70;;;7.55;;
19828;SDS011;10075;50.924;4.396;2023-07-08T11:08:37;11.27;;;6.90;;
19828;SDS011;10075;50.924;4.396;2023-07-08T11:11:09;11.13;;;7.00;;
19828;SDS011;10075;50.924;4.396;2023-07-08T11:13:50;10.98;;;7.30;;
19828;SDS011;10075;50.924;4.396;2023-07-08T11:16:21;13.32;;;7.20;;
19828;SDS011;10075;50.924;4.396;2023-07-08T11:18:52;13.02;;;7.05;;
19828;SDS011;10075;50.924;4.396;2023-07-08T11:21:24;10.73;;;7.30;;
19828;SDS011;10075;50.924;4.396;2023-07-08T11:23:56;12.73;;;7.00;;
19828;SDS011;10075;50.924;4.396;2023-07-08T11:26:32;9.23;;;6.82;;
19828;SDS011;10075;50.924;4.396;2023-07-08T11:29:02;12.15;;;7.78;;
19828;SDS011;10075;50.924;4.396;2023-07-08T11:31:35;10.82;;;6.80;;
19828;SDS011;10075;50.924;4.396;2023-07-08T11:34:02;9.70;;;7.68;;
19828;SDS011;10075;50.924;4.396;2023-07-08T11:36:30;9.95;;;7.15;;
19828;SDS011;10075;50.924;4.396;2023-07-08T11:39:00;11.52;;;7.40;;
19828;SDS011;10075;50.924;4.396;2023-07-08T11:41:30;11.43;;;7.32;;
19828;SDS011;10075;50.924;4.396;2023-07-08T11:43:58;13.02;;;7.45;;
19828;SDS011;10075;50.924;4.396;2023-07-08T11:46:29;9.52;;;7.25;;
19828;SDS011;10075;50.924;4.396;2023-07-08T11:49:00;14.02;;;7.43;;
19828;SDS011;10075;50.924;4.396;2023-07-08T11:51:29;10.73;;;7.38;;
19828;SDS011;10075;50.924;4.396;2023-07-08T11:53:59;9.30;;;6.50;;
19828;SDS011;10075;50.924;4.396;2023-07-08T11:56:46;10.48;;;6.32;;
19828;SDS011;10075;50.924;4.396;2023-07-08T11:59:17;11.23;;;6.57;;
19828;SDS011;10075;50.924;4.396;2023-07-08T12:01:46;10.05;;;6.53;;
19828;SDS011;10075;50.924;4.396;2023-07-08T12:04:25;9.70;;;6.38;;
19828;SDS011;10075;50.924;4.396;2023-07-08T12:07:02;8.55;;;5.60;;
19828;SDS011;10075;50.924;4.396;2023-07-08T12:09:38;8.45;;;5.15;;
19828;SDS011;10075;50.924;4.396;2023-07-08T12:12:14;10.70;;;5.90;;
19828;SDS011;10075;50.924;4.396;2023-07-08T12:14:47;9.95;;;5.90;;
19828;SDS011;10075;50.924;4.396;2023-07-08T12:17:14;10.70;;;5.90;;
19828;SDS011;10075;50.924;4.396;2023-07-08T12:19:42;10.30;;;6.00;;
19828;SDS011;10075;50.924;4.396;2023-07-08T12:22:12;10.02;;;6.25;;
19828;SDS011;10075;50.924;4.396;2023-07-08T12:24:41;11.45;;;6.35;;
19828;SDS011;10075;50.924;4.396;2023-07-08T12:27:11;10.43;;;5.40;;
19828;SDS011;10075;50.924;4.396;2023-07-08T12:29:37;11.40;;;5.85;;
19828;SDS011;10075;50.924;4.396;2023-07-08T12:32:05;10.80;;;5.40;;
19828;SDS011;10075;50.924;4.396;2023-07-08T12:34:35;9.73;;;6.13;;
19828;SDS011;10075;50.924;4.396;2023-07-08T12:37:02;10.05;;;5.72;;
19828;SDS011;10075;50.924;4.396;2023-07-08T12:39:29;11.45;;;5.75;;
19828;SDS011;10075;50.924;4.396;2023-07-08T12:42:01;9.98;;;6.15;;
19828;SDS011;10075;50.924;4.396;2023-07-08T12:44:29;8.32;;;5.43;;
19828;SDS011;10075;50.924;4.396;2023-07-08T12:46:59;8.93;;;5.70;;
19828;SDS011;10075;50.924;4.396;2023-07-08T12:49:27;9.35;;;5.43;;
19828;SDS011;10075;50.924;4.396;2023-07-08T12:51:55;10.00;;;5.75;;
19828;SDS011;10075;50.924;4.396;2023-07-08T12:54:22;14.63;;;10.95;;
19828;SDS011;10075;50.924;4.396;2023-07-08T12:56:49;10.60;;;6.50;;
19828;SDS011;10075;50.924;4.396;2023-07-08T12:59:19;8.43;;;5.47;;
19828;SDS011;10075;50.924;4.396;2023-07-08T13:01:47;10.00;;;5.95;;
19828;SDS011;10075;50.924;4.396;2023-07-08T13:04:17;16.17;;;5.25;;
19828;SDS011;10075;50.924;4.396;2023-07-08T13:06:45;23.45;;;5.57;;
19828;SDS011;10075;50.924;4.396;2023-07-08T13:09:36;21.00;;;6.10;;
19828;SDS011;10075;50.924;4.396;2023-07-08T13:12:05;25.70;;;5.75;;
19828;SDS011;10075;50.924;4.396;2023-07-08T13:14:41;13.73;;;5.30;;
19828;SDS011;10075;50.924;4.396;2023-07-08T13:17:10;17.67;;;4.82;;
19828;SDS011;10075;50.924;4.396;2023-07-08T13:19:39;13.95;;;4.93;;
19828;SDS011;10075;50.924;4.396;2023-07-08T13:22:09;27.60;;;5.65;;
19828;SDS011;10075;50.924;4.396;2023-07-08T13:24:41;13.32;;;4.65;;
19828;SDS011;10075;50.924;4.396;2023-07-08T13:27:10;15.63;;;6.60;;
19828;SDS011;10075;50.924;4.396;2023-07-08T13:29:45;16.05;;;7.10;;
19828;SDS011;10075;50.924;4.396;2023-07-08T13:32:12;23.33;;;9.20;;
19828;SDS011;10075;50.924;4.396;2023-07-08T13:34:40;20.75;;;8.40;;
19828;SDS011;10075;50.924;4.396;2023-07-08T13:37:09;24.60;;;9.38;;
19828;SDS011;10075;50.924;4.396;2023-07-08T13:39:38;21.75;;;10.07;;
19828;SDS011;10075;50.924;4.396;2023-07-08T13:42:09;20.63;;;9.32;;
19828;SDS011;10075;50.924;4.396;2023-07-08T13:44:41;17.85;;;8.32;;
19828;SDS011;10075;50.924;4.396;2023-07-08T13:47:20;22.83;;;6.60;;
19828;SDS011;10075;50.924;4.396;2023-07-08T13:49:49;15.70;;;7.32;;
19828;SDS011;10075;50.924;4.396;2023-07-08T13:52:22;11.10;;;5.95;;
19828;SDS011;10075;50.924;4.396;2023-07-08T13:54:49;14.35;;;7.05;;
19828;SDS011;10075;50.924;4.396;2023-07-08T13:57:19;11.57;;;5.72;;
19828;SDS011;10075;50.924;4.396;2023-07-08T13:59:48;9.82;;;5.47;;
19828;SDS011;10075;50.924;4.396;2023-07-08T14:02:16;8.73;;;5.75;;
19828;SDS011;10075;50.924;4.396;2023-07-08T14:04:47;7.78;;;4.45;;
19828;SDS011;10075;50.924;4.396;2023-07-08T14:07:15;8.75;;;4.70;;
19828;SDS011;10075;50.924;4.396;2023-07-08T14:09:44;9.43;;;4.95;;
19828;SDS011;10075;50.924;4.396;2023-07-08T14:12:11;7.00;;;4.80;;
19828;SDS011;10075;50.924;4.396;2023-07-08T14:14:38;8.93;;;4.80;;
19828;SDS011;10075;50.924;4.396;2023-07-08T14:17:07;7.10;;;4.45;;
19828;SDS011;10075;50.924;4.396;2023-07-08T14:19:36;7.68;;;4.20;;
19828;SDS011;10075;50.924;4.396;2023-07-08T14:22:14;7.30;;;4.28;;
19828;SDS011;10075;50.924;4.396;2023-07-08T14:24:53;8.55;;;4.15;;
19828;SDS011;10075;50.924;4.396;2023-07-08T14:27:21;6.07;;;4.20;;
19828;SDS011;10075;50.924;4.396;2023-07-08T14:29:48;7.30;;;3.78;;
19828;SDS011;10075;50.924;4.396;2023-07-08T14:32:18;6.72;;;3.70;;
19828;SDS011;10075;50.924;4.396;2023-07-08T14:34:48;9.07;;;4.32;;
19828;SDS011;10075;50.924;4.396;2023-07-08T14:37:19;6.45;;;4.10;;
19828;SDS011;10075;50.924;4.396;2023-07-08T14:39:47;6.32;;;4.07;;
19828;SDS011;10075;50.924;4.396;2023-07-08T14:42:14;7.47;;;4.45;;
19828;SDS011;10075;50.924;4.396;2023-07-08T14:44:43;9.07;;;4.00;;
19828;SDS011;10075;50.924;4.396;2023-07-08T14:47:13;8.00;;;4.50;;
19828;SDS011;10075;50.924;4.396;2023-07-08T14:49:42;6.13;;;4.10;;
19828;SDS011;10075;50.924;4.396;2023-07-08T14:52:09;6.13;;;3.75;;
19828;SDS011;10075;50.924;4.396;2023-07-08T14:54:37;5.57;;;3.83;;